Time;durP1;ratioP1;P1;durP2;ratioP2;P2;SDS_P1;SDS_P2;PMS_P1;PMS_P2;Temp;Humidity;BMP_temperature;BMP_pressure;BME280_temperature;BME280_humidity;BME280_pressure;Samples;Min_cycle;Max_cycle;Signal;HPM_P1;HPM_P2
2022/11/29 00:01:01;;;;;;;;;6.00;5.00;;;;;11.25;67.35;100947.22;4996581;28;45613;-72
2022/11/29 00:03:27;;;;;;;;;5.67;4.00;;;;;10.74;67.50;100881.06;5010167;28;46394;-70
2022/11/29 00:05:52;;;;;;;;;6.33;6.33;;;;;10.86;67.85;100889.75;5017355;28;45246;-70
2022/11/29 00:08:19;;;;;;;;;7.33;5.33;;;;;11.23;67.75;100967.81;5007670;28;45445;-72
2022/11/29 00:10:44;;;;;;;;;5.00;5.00;;;;;10.29;67.99;100819.69;4997155;28;45534;-72
2022/11/29 00:13:09;;;;;;;;;7.67;7.67;;;;;11.11;68.31;100960.13;4979170;28;48630;-71
2022/11/29 00:15:36;;;;;;;;;6.67;6.67;;;;;10.96;67.95;100936.63;4979449;28;45285;-71
2022/11/29 00:18:01;;;;;;;;;6.00;6.00;;;;;10.85;68.38;100927.97;5000146;28;45547;-73
2022/11/29 00:20:27;;;;;;;;;10.67;8.00;;;;;10.82;68.17;100920.28;4997090;28;45257;-70
2022/11/29 00:22:52;;;;;;;;;7.00;5.67;;;;;11.15;68.07;100973.00;5000650;28;45603;-71
2022/11/29 00:25:17;;;;;;;;;6.00;6.00;;;;;10.01;67.97;100784.13;5017145;28;45415;-72
2022/11/29 00:27:43;;;;;;;;;8.00;4.00;;;;;11.03;68.56;100962.69;4998328;28;45452;-71
2022/11/29 00:30:08;;;;;;;;;7.33;6.00;;;;;10.58;68.63;100886.09;4999316;28;45607;-70
2022/11/29 00:32:34;;;;;;;;;6.67;4.67;;;;;11.04;68.26;100964.34;5015159;28;46856;-70
2022/11/29 00:34:59;;;;;;;;;4.67;4.00;;;;;11.05;68.53;100974.00;4998993;28;50259;-71
2022/11/29 00:37:25;;;;;;;;;6.00;6.00;;;;;10.53;68.51;100875.91;5016061;28;45226;-72
2022/11/29 00:39:50;;;;;;;;;8.00;7.00;;;;;10.87;68.67;100941.97;4998841;28;45235;-71
2022/11/29 00:42:15;;;;;;;;;5.67;5.67;;;;;11.11;68.87;100976.09;4996642;28;46035;-72
2022/11/29 00:44:41;;;;;;;;;6.00;6.00;;;;;11.10;68.67;100980.56;4997101;28;45244;-72
2022/11/29 00:47:06;;;;;;;;;8.67;7.00;;;;;11.09;68.61;100976.25;5004155;28;45321;-72
2022/11/29 00:49:31;;;;;;;;;6.33;5.67;;;;;11.02;69.07;100982.28;5010123;28;45301;-71
2022/11/29 00:51:57;;;;;;;;;6.00;5.00;;;;;10.80;68.42;100949.63;5014025;28;48726;-72
2022/11/29 00:54:22;;;;;;;;;7.67;5.00;;;;;10.49;68.95;100890.47;5014743;28;45378;-73
2022/11/29 00:56:47;;;;;;;;;6.00;5.00;;;;;11.00;69.36;100978.88;5010228;28;45421;-71
2022/11/29 00:59:13;;;;;;;;;7.33;5.67;;;;;10.13;68.58;100835.31;4999583;28;46230;-71
2022/11/29 01:01:38;;;;;;;;;4.00;4.00;;;;;10.66;69.36;100940.28;5003311;28;45343;-72
2022/11/29 01:04:04;;;;;;;;;5.00;5.00;;;;;10.75;69.25;100961.69;5008390;28;45536;-70
2022/11/29 01:06:29;;;;;;;;;5.00;4.33;;;;;10.90;69.21;100979.75;5000370;28;45904;-70
2022/11/29 01:08:54;;;;;;;;;4.33;4.33;;;;;10.72;69.14;100965.47;5004898;28;45627;-71
2022/11/29 01:11:24;;;;;;;;;7.33;5.00;;;;;10.44;69.72;100919.28;5019856;28;46637;-70
2022/11/29 01:13:51;;;;;;;;;4.67;4.00;;;;;9.76;69.47;100806.75;5012034;28;45270;-72
2022/11/29 01:16:17;;;;;;;;;4.33;3.00;;;;;10.76;69.38;100984.63;5008834;28;45279;-70
2022/11/29 01:18:43;;;;;;;;;6.00;5.00;;;;;10.09;69.70;100866.63;5002236;28;45421;-71
2022/11/29 01:21:11;;;;;;;;;4.00;4.00;;;;;10.78;69.82;100995.97;5018734;28;46281;-72
2022/11/29 01:23:37;;;;;;;;;5.67;5.67;;;;;9.86;69.85;100842.13;5018558;28;45303;-70
2022/11/29 01:26:06;;;;;;;;;6.67;3.33;;;;;9.97;69.58;100868.56;5019795;28;45417;-71
2022/11/29 01:28:32;;;;;;;;;5.00;4.67;;;;;10.66;70.07;100972.19;5017377;28;45460;-70
2022/11/29 01:30:57;;;;;;;;;5.00;2.00;;;;;10.64;70.01;100976.81;5018464;28;46251;-71
2022/11/29 01:33:23;;;;;;;;;5.00;4.67;;;;;10.47;69.91;100958.03;5007742;28;45333;-71
2022/11/29 01:35:50;;;;;;;;;8.67;6.67;;;;;10.49;69.75;100956.91;4999908;28;45484;-72
2022/11/29 01:38:16;;;;;;;;;4.33;3.00;;;;;9.94;69.73;100868.00;5009954;28;45340;-71
2022/11/29 01:40:42;;;;;;;;;8.00;5.00;;;;;9.86;69.94;100850.09;5019186;28;46321;-71
2022/11/29 01:43:25;;;;;;;;;3.00;3.00;;;;;10.17;70.10;100898.63;5018345;28;45282;-72
2022/11/29 01:45:51;;;;;;;;;4.00;4.00;;;;;10.81;70.05;101011.66;5017306;28;45498;-71
2022/11/29 01:48:18;;;;;;;;;3.67;3.67;;;;;10.43;69.62;100949.50;5007095;28;45607;-69
2022/11/29 01:50:44;;;;;;;;;6.33;5.67;;;;;10.76;69.66;101005.91;4981901;28;47070;-72
2022/11/29 01:53:12;;;;;;;;;4.00;4.00;;;;;10.89;69.59;101014.47;4997474;28;45266;-72
2022/11/29 01:55:42;;;;;;;;;8.33;5.33;;;;;10.89;69.73;101027.78;4999673;28;45521;-71
2022/11/29 01:58:08;;;;;;;;;6.67;4.00;;;;;10.29;69.78;100923.31;4998404;28;45559;-70
2022/11/29 02:00:34;;;;;;;;;3.67;2.67;;;;;10.90;69.64;101026.78;4999241;28;45932;-69
2022/11/29 02:03:12;;;;;;;;;4.00;3.00;;;;;10.91;69.29;101031.13;5008269;28;45266;-71
2022/11/29 02:05:48;;;;;;;;;3.67;3.00;;;;;10.07;69.14;100890.66;5017861;28;45474;-72
2022/11/29 02:08:19;;;;;;;;;3.00;3.00;;;;;10.87;69.30;101029.72;5018233;28;45416;-70
2022/11/29 02:10:52;;;;;;;;;4.00;3.67;;;;;10.78;69.57;101001.28;5018566;28;45864;-72
2022/11/29 02:13:28;;;;;;;;;6.33;5.00;;;;;10.95;69.60;101037.84;5006386;28;45319;-71
2022/11/29 02:16:06;;;;;;;;;3.67;3.67;;;;;11.04;69.38;101038.84;4999673;28;45271;-71
2022/11/29 02:18:34;;;;;;;;;5.00;3.00;;;;;10.84;69.55;100995.44;5008255;28;45539;-72
2022/11/29 02:21:21;;;;;;;;;6.33;4.00;;;;;11.08;69.02;101032.25;4996896;28;48635;-70
2022/11/29 02:23:55;;;;;;;;;5.33;4.00;;;;;11.11;69.10;101039.94;4980977;28;45819;-70
2022/11/29 02:26:53;;;;;;;;;6.33;2.67;;;;;11.11;69.05;101054.09;4999072;28;45357;-70
2022/11/29 02:29:28;;;;;;;;;3.00;3.00;;;;;11.16;69.22;101037.69;4999502;28;45528;-71
2022/11/29 02:31:56;;;;;;;;;4.33;4.33;;;;;11.13;68.44;101044.16;4998483;28;46454;-71
2022/11/29 02:34:48;;;;;;;;;4.00;3.67;;;;;11.09;69.12;101042.75;4998887;28;45538;-70
2022/11/29 02:37:44;;;;;;;;;5.00;5.00;;;;;11.08;68.53;101040.25;5018713;28;45290;-70
2022/11/29 02:40:38;;;;;;;;;6.67;4.67;;;;;11.07;68.59;101036.75;5009835;28;45274;-71
2022/11/29 02:43:29;;;;;;;;;4.67;4.67;;;;;11.05;68.56;101045.84;4999678;28;48063;-73
2022/11/29 02:46:06;;;;;;;;;5.33;5.33;;;;;10.90;69.21;101024.13;5018500;28;45335;-72
2022/11/29 02:48:50;;;;;;;;;5.00;3.00;;;;;11.06;69.05;101044.88;5000069;28;45468;-70
2022/11/29 02:51:40;;;;;;;;;6.00;5.00;;;;;11.06;69.10;101044.88;4981307;28;45323;-71
2022/11/29 02:54:33;;;;;;;;;4.67;4.67;;;;;11.07;68.66;101044.72;5008010;28;48273;-69
2022/11/29 02:57:03;;;;;;;;;5.00;5.00;;;;;11.09;68.59;101041.91;5018331;28;45218;-70
2022/11/29 02:59:28;;;;;;;;;4.67;3.00;;;;;11.08;68.30;101051.72;5003126;28;45317;-71
2022/11/29 03:02:05;;;;;;;;;5.00;4.67;;;;;10.17;68.50;100895.97;4999458;28;45376;-72
2022/11/29 03:04:44;;;;;;;;;4.33;4.33;;;;;10.54;68.50;100960.00;4997694;28;45653;-71
2022/11/29 03:07:22;;;;;;;;;7.67;5.00;;;;;11.17;68.41;101055.34;5002370;28;45286;-70
2022/11/29 03:10:00;;;;;;;;;4.00;4.00;;;;;11.07;68.16;101035.91;5018464;28;45304;-70
2022/11/29 03:12:34;;;;;;;;;3.00;3.00;;;;;11.17;68.15;101053.53;4999444;28;45996;-71
2022/11/29 03:15:11;;;;;;;;;6.00;6.00;;;;;11.18;68.46;101057.88;5000093;28;47730;-70
2022/11/29 03:18:18;;;;;;;;;6.00;5.00;;;;;10.76;68.25;100985.47;5011812;28;45536;-71
2022/11/29 03:21:05;;;;;;;;;3.33;3.33;;;;;11.20;68.12;101058.56;4954308;28;45454;-71
2022/11/29 03:23:38;;;;;;;;;7.33;4.00;;;;;10.23;68.50;100902.63;4997966;28;45322;-71
2022/11/29 03:26:34;;;;;;;;;6.67;5.00;;;;;11.19;68.03;101058.72;4998163;28;46115;-71
2022/11/29 03:29:14;;;;;;;;;7.67;6.33;;;;;11.07;68.31;101039.41;4979769;28;45529;-71
2022/11/29 03:31:53;;;;;;;;;5.00;4.00;;;;;10.89;68.48;101019.78;5011039;28;45400;-72
2022/11/29 03:34:48;;;;;;;;;4.00;4.00;;;;;11.20;68.61;101071.88;5016121;28;45222;-70
2022/11/29 03:37:18;;;;;;;;;4.67;3.67;;;;;11.24;68.34;101075.13;4998081;28;47420;-70
2022/11/29 03:39:53;;;;;;;;;7.00;4.67;;;;;10.69;68.38;100978.19;5016544;28;46178;-71
2022/11/29 03:42:25;;;;;;;;;5.00;4.00;;;;;11.16;68.07;101064.31;5002750;28;45331;-69
2022/11/29 03:45:12;;;;;;;;;6.67;5.00;;;;;10.39;68.36;100932.13;4980339;28;45503;-72
2022/11/29 03:47:47;;;;;;;;;6.00;5.00;;;;;10.85;68.03;101015.72;4997393;28;45688;-72
2022/11/29 03:50:18;;;;;;;;;8.00;6.67;;;;;11.23;68.04;101079.59;4997738;28;45511;-70
2022/11/29 03:52:54;;;;;;;;;5.00;4.00;;;;;11.16;68.22;101082.94;4997931;28;45397;-70
2022/11/29 03:55:20;;;;;;;;;4.67;4.00;;;;;11.18;67.82;101084.47;4997931;28;45255;-71
2022/11/29 03:57:57;;;;;;;;;5.33;5.33;;;;;11.20;68.12;101090.50;5002086;28;46015;-72
2022/11/29 04:00:22;;;;;;;;;8.67;6.33;;;;;10.68;67.99;101009.28;4996574;28;45492;-73
2022/11/29 04:03:01;;;;;;;;;6.33;5.00;;;;;11.18;67.72;101095.13;4996776;28;45253;-71
2022/11/29 04:06:01;;;;;;;;;5.33;5.33;;;;;11.23;68.01;101092.06;5010895;28;45514;-72
2022/11/29 04:08:48;;;;;;;;;7.00;5.67;;;;;11.20;67.40;101100.31;5017372;28;46405;-71
2022/11/29 04:11:53;;;;;;;;;5.33;4.00;;;;;11.17;67.95;101111.22;5017290;28;45367;-71
2022/11/29 04:14:24;;;;;;;;;6.00;6.00;;;;;11.14;67.51;101098.22;5012283;28;45487;-71
2022/11/29 04:17:21;;;;;;;;;6.33;6.33;;;;;11.12;67.61;101109.00;4997796;28;45249;-72
2022/11/29 04:19:52;;;;;;;;;6.33;5.33;;;;;11.15;67.72;101116.69;4997364;28;46448;-70
2022/11/29 04:22:50;;;;;;;;;5.33;5.33;;;;;11.16;67.66;101112.22;4998051;28;45578;-71
2022/11/29 04:25:33;;;;;;;;;5.00;5.00;;;;;11.11;67.83;101107.31;4993934;28;45396;-70
2022/11/29 04:28:16;;;;;;;;;4.00;4.00;;;;;11.16;67.97;101122.88;4997074;28;45607;-72
2022/11/29 04:31:19;;;;;;;;;3.67;2.33;;;;;11.18;67.37;101121.75;4997119;28;45847;-71
2022/11/29 04:34:20;;;;;;;;;7.33;6.67;;;;;11.21;67.69;101124.16;5007936;28;45340;-72
2022/11/29 04:37:06;;;;;;;;;4.33;4.00;;;;;11.23;67.57;101130.19;4996926;28;45263;-71
2022/11/29 04:40:02;;;;;;;;;4.00;4.00;;;;;11.24;67.06;101139.84;5016119;28;46035;-71
2022/11/29 04:42:59;;;;;;;;;6.00;5.67;;;;;11.28;67.55;101130.59;5000151;28;46264;-71
2022/11/29 04:45:59;;;;;;;;;4.67;4.33;;;;;11.30;67.14;101135.78;5000604;28;45411;-70
2022/11/29 04:48:54;;;;;;;;;7.00;6.33;;;;;11.30;66.85;101142.91;4997032;28;45369;-70
2022/11/29 04:51:40;;;;;;;;;6.00;4.00;;;;;11.30;66.89;101140.25;5003562;28;45274;-70
2022/11/29 04:54:25;;;;;;;;;7.00;7.00;;;;;11.21;66.72;101132.13;4994664;28;45786;-71
2022/11/29 04:57:08;;;;;;;;;5.67;5.67;;;;;11.17;66.63;101141.34;5006413;28;45489;-72
2022/11/29 04:59:49;;;;;;;;;8.00;6.67;;;;;11.15;67.45;101145.97;5016678;28;45372;-71
2022/11/29 05:02:23;;;;;;;;;7.00;6.67;;;;;10.47;67.07;101043.09;5002589;28;45495;-72
2022/11/29 05:05:12;;;;;;;;;7.67;7.00;;;;;11.16;67.08;101154.78;4996691;28;46506;-72
2022/11/29 05:07:49;;;;;;;;;9.00;6.00;;;;;11.10;67.12;101150.88;4996285;28;45325;-71
2022/11/29 05:10:30;;;;;;;;;6.00;6.00;;;;;11.03;67.42;101155.06;5012595;28;45183;-71
2022/11/29 05:13:11;;;;;;;;;7.00;7.00;;;;;10.16;67.81;101005.88;5016209;28;45507;-71
2022/11/29 05:16:01;;;;;;;;;6.00;6.00;;;;;11.14;67.51;101162.09;5013356;28;46743;-70
2022/11/29 05:18:51;;;;;;;;;8.00;7.00;;;;;11.17;67.80;101162.63;4996253;28;45416;-71
2022/11/29 05:21:34;;;;;;;;;10.00;8.33;;;;;10.69;67.66;101087.22;5000653;28;45490;-71
2022/11/29 05:24:08;;;;;;;;;8.00;8.00;;;;;10.88;67.75;101130.66;5016509;28;45277;-69
2022/11/29 05:27:06;;;;;;;;;5.33;5.33;;;;;11.01;68.00;101166.81;5015389;28;45648;-71
2022/11/29 05:29:49;;;;;;;;;15.00;11.67;;;;;10.99;68.35;101166.94;5015091;28;45387;-71
2022/11/29 05:32:21;;;;;;;;;10.33;9.00;;;;;10.91;68.15;101174.78;5016231;28;45523;-71
2022/11/29 05:34:49;;;;;;;;;11.33;10.00;;;;;10.85;68.49;101199.25;4997164;28;45361;-72
2022/11/29 05:37:25;;;;;;;;;9.00;9.00;;;;;10.17;68.54;101086.44;4996490;28;45898;-70
2022/11/29 05:40:30;;;;;;;;;6.67;6.67;;;;;10.83;69.19;101191.41;5013448;28;45307;-71
2022/11/29 05:43:20;;;;;;;;;10.00;9.00;;;;;9.98;68.97;101042.03;5002914;28;45495;-69
2022/11/29 05:45:59;;;;;;;;;10.33;10.33;;;;;9.83;68.52;101024.78;4998984;28;45460;-71
2022/11/29 05:48:36;;;;;;;;;9.33;9.33;;;;;10.90;67.96;101202.34;4998939;28;45515;-70
2022/11/29 05:51:10;;;;;;;;;10.00;9.33;;;;;10.89;68.07;101206.00;4981894;28;45508;-70
2022/11/29 05:53:43;;;;;;;;;9.67;8.00;;;;;10.48;68.22;101154.59;5003475;28;45323;-72
2022/11/29 05:56:22;;;;;;;;;9.00;9.00;;;;;10.81;68.29;101208.47;5019631;28;45266;-71
2022/11/29 05:59:19;;;;;;;;;12.67;10.00;;;;;10.80;68.62;101212.94;5018037;28;45779;-70
2022/11/29 06:02:04;;;;;;;;;9.33;9.00;;;;;10.80;68.46;101212.94;5012415;28;45674;-70
2022/11/29 06:05:27;;;;;;;;;13.67;12.00;;;;;10.81;68.47;101219.97;4998177;28;45286;-71
2022/11/29 06:08:15;;;;;;;;;14.00;12.67;;;;;10.81;68.05;101221.75;4938342;28;45342;-72
2022/11/29 06:10:56;;;;;;;;;12.33;11.00;;;;;10.62;68.06;101188.81;4937615;28;45741;-70
2022/11/29 06:13:58;;;;;;;;;9.33;9.33;;;;;10.79;68.55;101223.72;4978431;28;45696;-71
2022/11/29 06:17:00;;;;;;;;;14.67;10.00;;;;;10.74;68.02;101225.94;5002668;28;45467;-71
2022/11/29 06:19:56;;;;;;;;;12.00;9.67;;;;;10.42;67.65;101184.38;4999334;28;45270;-71
2022/11/29 06:22:25;;;;;;;;;12.00;10.00;;;;;10.66;67.94;101237.25;4987783;28;47825;-72
2022/11/29 06:25:20;;;;;;;;;13.00;11.00;;;;;10.56;68.96;101233.69;4999311;28;45316;-73
2022/11/29 06:28:22;;;;;;;;;13.33;12.33;;;;;10.65;68.30;101236.41;5013642;28;45657;-72
2022/11/29 06:30:53;;;;;;;;;13.33;9.67;;;;;10.64;67.57;101247.19;5000217;28;45505;-71
2022/11/29 06:33:46;;;;;;;;;10.00;8.00;;;;;10.23;66.91;101178.97;4980853;28;48546;-71
2022/11/29 06:36:24;;;;;;;;;9.00;7.33;;;;;10.54;66.92;101230.31;4999108;28;45586;-73
2022/11/29 06:38:49;;;;;;;;;10.67;9.00;;;;;10.57;66.52;101240.69;4993084;28;45424;-69
2022/11/29 06:41:21;;;;;;;;;9.00;7.00;;;;;10.44;67.38;101240.91;4995608;28;45667;-71
2022/11/29 06:43:47;;;;;;;;;7.00;6.00;;;;;10.38;67.20;101265.34;4999379;28;45928;-70
2022/11/29 06:46:32;;;;;;;;;6.00;6.00;;;;;9.94;66.84;101192.84;4998330;28;45281;-71
2022/11/29 06:49:06;;;;;;;;;9.00;7.67;;;;;10.29;67.17;101239.56;4998784;28;45175;-71
2022/11/29 06:51:43;;;;;;;;;16.67;14.00;;;;;8.77;68.30;101023.03;5002491;28;45470;-73
2022/11/29 06:54:15;;;;;;;;;14.00;11.67;;;;;10.24;69.45;101263.03;5000419;28;47466;-71
2022/11/29 06:56:56;;;;;;;;;13.67;13.67;;;;;10.18;70.47;101263.47;4994643;28;45983;-70
2022/11/29 06:59:30;;;;;;;;;15.67;15.67;;;;;10.19;71.13;101265.16;5002151;28;45951;-71
2022/11/29 07:02:17;;;;;;;;;15.67;15.00;;;;;9.69;71.14;101198.53;5006666;28;45270;-72
2022/11/29 07:05:06;;;;;;;;;17.67;17.67;;;;;10.00;71.54;101260.53;5000039;28;46866;-73
2022/11/29 07:07:33;;;;;;;;;16.00;16.00;;;;;10.11;71.61;101272.94;5003340;28;45434;-71
2022/11/29 07:10:02;;;;;;;;;23.33;18.00;;;;;10.07;72.41;101264.41;5015982;28;45474;-71
2022/11/29 07:12:27;;;;;;;;;29.67;23.00;;;;;10.19;72.19;101286.44;5014242;28;45454;-71
2022/11/29 07:14:53;;;;;;;;;20.33;20.33;;;;;10.24;71.96;101284.28;5020429;28;46897;-71
2022/11/29 07:17:18;;;;;;;;;22.67;22.67;;;;;10.34;71.83;101279.88;5019173;28;45424;-70
2022/11/29 07:20:02;;;;;;;;;23.00;20.33;;;;;10.40;71.81;101284.66;5006901;28;45510;-72
2022/11/29 07:22:40;;;;;;;;;24.67;24.67;;;;;10.07;71.29;101230.72;4999457;28;45624;-72
2022/11/29 07:25:29;;;;;;;;;23.00;21.00;;;;;10.50;71.32;101290.88;4997580;28;46409;-71
2022/11/29 07:28:00;;;;;;;;;24.33;24.33;;;;;10.52;71.51;101293.41;4997462;28;45226;-72
2022/11/29 07:30:37;;;;;;;;;24.33;24.00;;;;;10.54;71.25;101292.31;4997393;28;45267;-70
2022/11/29 07:33:40;;;;;;;;;29.67;26.00;;;;;10.57;71.62;101296.53;4996728;28;45547;-70
2022/11/29 07:36:32;;;;;;;;;18.00;18.00;;;;;10.57;70.88;101300.03;4998098;28;45361;-74
2022/11/29 07:39:38;;;;;;;;;16.00;15.00;;;;;10.58;71.30;101309.69;4986679;28;45420;-71
2022/11/29 07:42:16;;;;;;;;;23.00;19.67;;;;;10.49;70.76;101312.28;5006784;28;45348;-72
2022/11/29 07:45:04;;;;;;;;;23.00;18.33;;;;;10.40;70.99;101300.59;5017735;28;45250;-71
2022/11/29 07:47:29;;;;;;;;;24.00;21.33;;;;;10.26;71.20;101292.97;5003849;28;45905;-74
2022/11/29 07:49:54;;;;;;;;;17.67;17.67;;;;;10.20;71.51;101293.44;5008860;28;45432;-74
2022/11/29 07:52:20;;;;;;;;;21.33;20.00;;;;;10.09;71.92;101315.59;5007247;28;53983;-72
2022/11/29 07:54:45;;;;;;;;;21.00;21.00;;;;;9.79;72.18;101273.78;4997913;28;45385;-71
2022/11/29 07:57:10;;;;;;;;;18.00;17.00;;;;;9.94;72.25;101299.09;4997634;28;47728;-72
2022/11/29 07:59:36;;;;;;;;;22.00;21.33;;;;;9.48;71.89;101218.88;5016119;28;50068;-69
2022/11/29 08:02:01;;;;;;;;;19.67;17.33;;;;;9.61;72.21;101251.41;5026306;28;45430;-71
2022/11/29 08:04:27;;;;;;;;;18.00;18.00;;;;;9.62;72.28;101256.63;5003147;28;45562;-75
2022/11/29 08:06:52;;;;;;;;;21.33;18.67;;;;;9.04;72.56;101173.78;5006403;28;67382;-71
2022/11/29 08:09:17;;;;;;;;;21.00;18.67;;;;;9.97;72.39;101330.72;4997241;28;45420;-71
2022/11/29 08:11:43;;;;;;;;;20.67;19.33;;;;;10.01;72.84;101326.00;5009852;28;45474;-72
2022/11/29 08:14:09;;;;;;;;;17.33;16.33;;;;;9.92;72.59;101332.91;5017335;28;45494;-73
2022/11/29 08:16:34;;;;;;;;;25.33;19.67;;;;;9.27;72.59;101240.88;4985663;28;47923;-72
2022/11/29 08:19:00;;;;;;;;;23.67;19.67;;;;;8.69;72.42;101142.13;5005347;28;45596;-71
2022/11/29 08:21:25;;;;;;;;;21.00;18.00;;;;;9.81;73.00;101340.91;5016492;28;45540;-71
2022/11/29 08:23:50;;;;;;;;;26.33;20.00;;;;;9.87;72.70;101342.22;5009062;28;45298;-71
2022/11/29 08:26:17;;;;;;;;;24.67;24.67;;;;;9.87;72.61;101343.06;4986238;28;47702;-73
2022/11/29 08:28:43;;;;;;;;;24.33;17.00;;;;;8.78;72.48;101162.56;4984862;28;45491;-72
2022/11/29 08:31:11;;;;;;;;;18.00;15.00;;;;;9.85;72.22;101352.13;5000664;28;45481;-74
2022/11/29 08:33:41;;;;;;;;;25.00;22.00;;;;;9.72;72.26;101341.66;5012026;28;45372;-74
2022/11/29 08:36:09;;;;;;;;;30.33;29.33;;;;;9.74;73.05;101356.50;5000624;28;46980;-73
2022/11/29 08:38:35;;;;;;;;;27.67;22.33;;;;;9.64;73.13;101376.78;4985316;28;45520;-73
2022/11/29 08:41:08;;;;;;;;;28.67;25.67;;;;;8.08;73.17;101127.50;4979836;28;45772;-74
2022/11/29 08:43:34;;;;;;;;;30.33;26.33;;;;;9.62;73.16;101352.19;5017746;28;45432;-73
2022/11/29 08:45:59;;;;;;;;;35.00;32.33;;;;;9.75;72.99;101381.22;4998726;28;48613;-73
2022/11/29 08:48:25;;;;;;;;;36.00;32.33;;;;;9.60;72.93;101364.72;5016819;28;45214;-75
2022/11/29 08:50:52;;;;;;;;;36.67;33.00;;;;;9.58;73.67;101387.03;4998639;28;45515;-74
2022/11/29 08:56:02;;;;;;;;;20.33;18.67;;;;;9.41;73.81;101385.72;5016557;28;45715;-74
2022/11/29 08:58:28;;;;;;;;;32.33;26.67;;;;;8.57;74.00;101261.50;4998528;28;45550;-75
2022/11/29 09:00:54;;;;;;;;;34.00;31.00;;;;;8.58;73.85;101269.31;5016410;28;45369;-73
2022/11/29 09:06:13;;;;;;;;;34.67;29.67;;;;;9.37;73.93;101411.66;5016641;28;45546;-74
2022/11/29 09:08:39;;;;;;;;;33.33;29.67;;;;;9.31;74.25;101409.47;5012348;28;45570;-72
2022/11/29 09:11:13;;;;;;;;;30.00;26.67;;;;;8.99;74.07;101360.72;5017415;28;45492;-74
2022/11/29 09:13:42;;;;;;;;;27.67;24.00;;;;;9.41;74.08;101407.81;5017989;28;45610;-74
2022/11/29 09:16:10;;;;;;;;;19.00;18.00;;;;;9.22;73.49;101370.41;4998443;28;48425;-71
2022/11/29 09:18:37;;;;;;;;;19.33;17.33;;;;;9.55;72.94;101419.13;5016592;28;46335;-74
2022/11/29 09:21:12;;;;;;;;;27.00;23.67;;;;;9.57;73.17;101420.69;5007114;28;45409;-72
2022/11/29 09:23:40;;;;;;;;;26.33;22.67;;;;;9.47;72.71;101400.34;5022418;28;45377;-74
2022/11/29 09:26:07;;;;;;;;;23.33;19.33;;;;;9.29;72.37;101358.34;4998744;28;46274;-71
2022/11/29 09:28:33;;;;;;;;;27.00;24.67;;;;;9.32;72.46;101379.34;5000595;28;45176;-73
2022/11/29 09:31:07;;;;;;;;;23.00;19.33;;;;;9.58;72.24;101398.50;5010850;28;45609;-75
2022/11/29 09:33:34;;;;;;;;;23.67;20.67;;;;;9.62;71.97;101399.13;5015934;28;45520;-75
2022/11/29 09:36:00;;;;;;;;;25.33;24.00;;;;;9.06;71.31;101287.69;5015818;28;48328;-74
2022/11/29 09:38:26;;;;;;;;;26.00;25.00;;;;;9.46;70.88;101362.31;5001867;28;45453;-73
2022/11/29 09:41:00;;;;;;;;;23.33;22.33;;;;;10.21;70.73;101452.78;5019435;28;45358;-73
2022/11/29 09:43:51;;;;;;;;;27.67;20.67;;;;;10.33;69.89;101454.44;5018717;28;45447;-73
2022/11/29 09:46:37;;;;;;;;;27.67;22.67;;;;;10.40;69.33;101460.09;5017769;28;45771;-76
2022/11/29 09:49:20;;;;;;;;;22.00;19.67;;;;;10.42;69.16;101442.22;5000751;28;45393;-73
2022/11/29 09:52:28;;;;;;;;;30.00;26.67;;;;;10.57;68.83;101456.91;4982607;28;45347;-73
2022/11/29 09:55:21;;;;;;;;;29.33;27.00;;;;;10.61;68.94;101460.13;5009123;28;45485;-72
2022/11/29 09:57:48;;;;;;;;;24.67;20.00;;;;;9.92;68.44;101348.00;4999991;28;46627;-75
2022/11/29 10:00:16;;;;;;;;;28.67;25.67;;;;;10.46;68.73;101427.72;5004975;28;45551;-73
2022/11/29 10:02:51;;;;;;;;;25.33;23.67;;;;;10.61;67.58;101442.41;5006851;28;45594;-72
2022/11/29 10:05:25;;;;;;;;;24.00;21.67;;;;;10.80;67.73;101476.25;5019065;28;45424;-73
2022/11/29 10:08:07;;;;;;;;;27.33;27.33;;;;;10.95;67.15;101488.28;5018615;28;45446;-73
2022/11/29 10:10:40;;;;;;;;;24.33;22.67;;;;;11.05;66.79;101491.03;5000665;28;45334;-73
2022/11/29 10:13:33;;;;;;;;;27.00;22.33;;;;;10.78;66.08;101454.28;5010590;28;45244;-73
2022/11/29 10:16:05;;;;;;;;;23.67;23.67;;;;;10.98;66.35;101476.53;5017625;28;45476;-72
2022/11/29 10:18:37;;;;;;;;;31.00;27.33;;;;;11.19;65.70;101489.84;5001198;28;46891;-73
2022/11/29 10:21:10;;;;;;;;;28.00;25.67;;;;;10.19;65.70;101324.47;4990295;28;45535;-72
2022/11/29 10:23:45;;;;;;;;;27.00;24.67;;;;;10.06;65.59;101323.81;5001174;28;45503;-71
2022/11/29 10:26:11;;;;;;;;;40.00;32.33;;;;;11.04;65.86;101484.03;5020150;28;45253;-74
2022/11/29 10:28:43;;;;;;;;;31.00;26.67;;;;;10.55;65.74;101410.97;5001017;28;47004;-72
2022/11/29 10:31:32;;;;;;;;;30.00;26.33;;;;;11.04;65.74;101496.50;5018983;28;45324;-74
2022/11/29 10:34:01;;;;;;;;;65.67;47.33;;;;;10.80;66.02;101473.59;5002424;28;45357;-75
2022/11/29 10:36:38;;;;;;;;;40.67;29.00;;;;;11.00;65.89;101495.88;4999572;28;45574;-74
2022/11/29 10:39:29;;;;;;;;;51.00;41.67;;;;;10.98;65.52;101498.66;4982504;28;46936;-73
2022/11/29 10:42:01;;;;;;;;;29.33;25.00;;;;;10.85;65.58;101481.22;4982949;28;45351;-73
2022/11/29 10:44:27;;;;;;;;;24.00;22.00;;;;;9.90;65.32;101316.25;5020753;28;45381;-72
2022/11/29 10:46:54;;;;;;;;;36.00;32.00;;;;;11.11;65.33;101498.50;5018451;28;45661;-72
2022/11/29 10:49:22;;;;;;;;;53.67;43.00;;;;;10.00;64.68;101325.16;5013774;28;46119;-72
2022/11/29 10:51:48;;;;;;;;;28.00;26.33;;;;;10.39;65.04;101383.13;4981756;28;45749;-70
2022/11/29 10:54:32;;;;;;;;;27.33;23.33;;;;;11.09;64.72;101499.59;5009316;28;45382;-71
2022/11/29 10:56:59;;;;;;;;;28.00;28.00;;;;;10.76;64.93;101450.91;5013453;28;45337;-71
2022/11/29 10:59:28;;;;;;;;;25.67;23.33;;;;;11.06;64.98;101490.06;5007192;28;45977;-72
2022/11/29 11:01:54;;;;;;;;;36.00;27.33;;;;;10.98;64.49;101461.41;5000366;28;45993;-74
2022/11/29 11:04:32;;;;;;;;;29.00;26.67;;;;;11.25;65.13;101500.84;5018452;28;45565;-72
2022/11/29 11:07:01;;;;;;;;;31.67;28.67;;;;;10.37;64.44;101372.63;5020098;28;45298;-70
2022/11/29 11:09:33;;;;;;;;;21.67;21.00;;;;;11.22;64.38;101505.59;5014930;28;45626;-74
2022/11/29 11:12:02;;;;;;;;;27.00;24.00;;;;;11.17;64.60;101513.94;5012105;28;45675;-72
2022/11/29 11:14:30;;;;;;;;;28.33;24.33;;;;;11.17;64.47;101516.59;5015463;28;45381;-76
2022/11/29 11:17:35;;;;;;;;;21.33;20.67;;;;;11.01;64.45;101470.97;4998427;28;45425;-73
2022/11/29 11:20:07;;;;;;;;;31.33;29.33;;;;;10.31;64.47;101352.72;4997356;28;47101;-74
2022/11/29 11:22:34;;;;;;;;;29.33;25.33;;;;;11.05;65.02;101515.00;5018298;28;45460;-76
2022/11/29 11:25:04;;;;;;;;;28.67;27.33;;;;;9.91;65.19;101325.06;5000668;28;45414;-71
2022/11/29 11:27:33;;;;;;;;;29.00;24.67;;;;;10.22;64.34;101381.88;4989264;28;45587;-74
2022/11/29 11:30:00;;;;;;;;;26.33;22.00;;;;;10.08;65.24;101353.75;4998980;28;46418;-71
2022/11/29 11:32:26;;;;;;;;;32.67;30.00;;;;;9.76;65.06;101328.00;4998107;28;45440;-72
2022/11/29 11:35:00;;;;;;;;;31.00;28.33;;;;;10.98;65.41;101508.47;4997057;28;45484;-73
2022/11/29 11:37:31;;;;;;;;;34.33;28.33;;;;;10.68;64.40;101481.78;4999017;28;45292;-72
2022/11/29 11:39:59;;;;;;;;;28.67;26.00;;;;;10.10;65.24;101386.34;4999050;28;46391;-72
2022/11/29 11:42:38;;;;;;;;;30.33;27.33;;;;;10.86;64.84;101498.88;4979780;28;46419;-75
2022/11/29 11:45:20;;;;;;;;;34.00;29.67;;;;;10.89;65.13;101504.78;5000808;28;45342;-73
2022/11/29 11:47:58;;;;;;;;;23.00;20.33;;;;;10.27;65.17;101403.59;4999374;28;45411;-76
2022/11/29 11:50:27;;;;;;;;;42.67;34.33;;;;;9.84;65.27;101335.34;4981641;28;45434;-75
2022/11/29 11:53:00;;;;;;;;;34.67;32.67;;;;;10.40;64.65;101457.44;4999099;28;45444;-71
2022/11/29 11:55:31;;;;;;;;;36.33;32.33;;;;;10.86;65.00;101509.50;4995880;28;45443;-72
2022/11/29 11:58:02;;;;;;;;;34.33;31.00;;;;;10.90;65.09;101508.28;5011982;28;45364;-73
2022/11/29 12:00:51;;;;;;;;;30.33;30.33;;;;;10.97;64.93;101506.78;5017403;28;47017;-75
2022/11/29 12:03:25;;;;;;;;;34.67;31.67;;;;;10.97;64.58;101490.81;4997603;28;45504;-72